sensor_id;sensor_type;location;lat;lon;timestamp;pressure;altitude;pressure_sealevel;temperature;humidity
37298;BME280;30517;51.932;4.278;2023-05-19T00:01:12;102807.69;;;17.43;49.30
37298;BME280;30517;51.932;4.278;2023-05-19T00:03:57;102793.47;;;17.38;49.85
37298;BME280;30517;51.932;4.278;2023-05-19T00:06:41;102802.38;;;17.34;49.32
37298;BME280;30517;51.932;4.278;2023-05-19T00:09:23;102799.66;;;17.31;49.71
37298;BME280;30517;51.932;4.278;2023-05-19T00:12:04;102807.69;;;17.29;49.95
37298;BME280;30517;51.932;4.278;2023-05-19T00:14:45;102798.78;;;17.24;49.65
37298;BME280;30517;51.932;4.278;2023-05-19T00:17:26;102802.31;;;17.20;49.61
37298;BME280;30517;51.932;4.278;2023-05-19T00:20:07;102800.53;;;17.17;49.39
37298;BME280;30517;51.932;4.278;2023-05-19T00:22:47;102798.78;;;17.13;49.73
37298;BME280;30517;51.932;4.278;2023-05-19T00:25:30;102806.75;;;17.12;49.80
37298;BME280;30517;51.932;4.278;2023-05-19T00:28:10;102805.88;;;17.11;49.55
37298;BME280;30517;51.932;4.278;2023-05-19T00:30:51;102807.63;;;17.09;49.61
37298;BME280;30517;51.932;4.278;2023-05-19T00:33:32;102804.97;;;17.08;49.85
37298;BME280;30517;51.932;4.278;2023-05-19T00:36:12;102808.53;;;17.05;49.87
37298;BME280;30517;51.932;4.278;2023-05-19T00:38:53;102804.09;;;17.02;49.59
37298;BME280;30517;51.932;4.278;2023-05-19T00:41:34;102804.06;;;17.01;49.75
37298;BME280;30517;51.932;4.278;2023-05-19T00:44:15;102813.84;;;16.97;49.59
37298;BME280;30517;51.932;4.278;2023-05-19T00:46:56;102799.63;;;16.95;49.74
37298;BME280;30517;51.932;4.278;2023-05-19T00:49:36;102805.81;;;16.93;49.38
37298;BME280;30517;51.932;4.278;2023-05-19T00:52:17;102803.16;;;16.90;49.41
37298;BME280;30517;51.932;4.278;2023-05-19T00:54:58;102803.16;;;16.87;49.75
37298;BME280;30517;51.932;4.278;2023-05-19T00:57:40;102797.81;;;16.84;49.64
37298;BME280;30517;51.932;4.278;2023-05-19T01:00:22;102795.13;;;16.79;49.67
37298;BME280;30517;51.932;4.278;2023-05-19T01:03:03;102791.53;;;16.75;49.59
37298;BME280;30517;51.932;4.278;2023-05-19T01:05:50;102805.75;;;16.74;49.82
37298;BME280;30517;51.932;4.278;2023-05-19T01:08:33;102793.28;;;16.70;49.92
37298;BME280;30517;51.932;4.278;2023-05-19T01:11:14;102791.53;;;16.66;49.95
37298;BME280;30517;51.932;4.278;2023-05-19T01:13:54;102795.06;;;16.64;49.89
37298;BME280;30517;51.932;4.278;2023-05-19T01:16:36;102791.50;;;16.62;49.90
37298;BME280;30517;51.932;4.278;2023-05-19T01:19:27;102781.72;;;16.59;50.04
37298;BME280;30517;51.932;4.278;2023-05-19T01:28:15;102788.78;;;16.48;50.02
37298;BME280;30517;51.932;4.278;2023-05-19T01:31:00;102791.44;;;16.45;50.08
37298;BME280;30517;51.932;4.278;2023-05-19T01:33:43;102774.56;;;16.43;50.21
37298;BME280;30517;51.932;4.278;2023-05-19T01:36:24;102771.88;;;16.38;50.02
37298;BME280;30517;51.932;4.278;2023-05-19T01:39:05;102780.72;;;16.35;50.23
37298;BME280;30517;51.932;4.278;2023-05-19T01:41:46;102795.81;;;16.33;50.11
37298;BME280;30517;51.932;4.278;2023-05-19T01:44:27;102783.34;;;16.31;50.06
37298;BME280;30517;51.932;4.278;2023-05-19T01:47:08;102778.94;;;16.28;50.55
37298;BME280;30517;51.932;4.278;2023-05-19T01:49:50;102778.91;;;16.25;49.99
37298;BME280;30517;51.932;4.278;2023-05-19T01:52:31;102777.09;;;16.23;50.17
37298;BME280;30517;51.932;4.278;2023-05-19T01:55:15;102770.00;;;16.20;50.15
37298;BME280;30517;51.932;4.278;2023-05-19T02:12:19;102761.91;;;16.00;50.50
37298;BME280;30517;51.932;4.278;2023-05-19T02:15:10;102761.91;;;15.99;50.68
37298;BME280;30517;51.932;4.278;2023-05-19T02:17:54;102768.13;;;15.96;50.43
37298;BME280;30517;51.932;4.278;2023-05-19T02:20:35;102765.41;;;15.93;50.29
37298;BME280;30517;51.932;4.278;2023-05-19T02:23:15;102774.28;;;15.92;50.19
37298;BME280;30517;51.932;4.278;2023-05-19T02:25:56;102764.53;;;15.88;50.47
37298;BME280;30517;51.932;4.278;2023-05-19T02:28:37;102764.47;;;15.85;50.09
37298;BME280;30517;51.932;4.278;2023-05-19T02:31:17;102760.03;;;15.84;50.01
37298;BME280;30517;51.932;4.278;2023-05-19T02:33:58;102764.47;;;15.80;50.39
37298;BME280;30517;51.932;4.278;2023-05-19T02:36:39;102760.00;;;15.79;49.89
37298;BME280;30517;51.932;4.278;2023-05-19T02:39:22;102759.13;;;15.77;50.52
37298;BME280;30517;51.932;4.278;2023-05-19T02:42:02;102754.66;;;15.75;49.94
37298;BME280;30517;51.932;4.278;2023-05-19T02:44:43;102756.44;;;15.73;49.96
37298;BME280;30517;51.932;4.278;2023-05-19T02:47:24;102754.63;;;15.70;49.91
37298;BME280;30517;51.932;4.278;2023-05-19T02:50:05;102751.00;;;15.65;50.38
37298;BME280;30517;51.932;4.278;2023-05-19T02:52:46;102764.31;;;15.65;50.18
37298;BME280;30517;51.932;4.278;2023-05-19T02:55:27;102671.72;;;15.12;50.45
37298;BME280;30517;51.932;4.278;2023-05-19T02:58:08;102753.63;;;15.60;50.37
37298;BME280;30517;51.932;4.278;2023-05-19T03:00:49;102750.94;;;15.57;50.15
37298;BME280;30517;51.932;4.278;2023-05-19T03:03:30;102750.06;;;15.54;50.23
37298;BME280;30517;51.932;4.278;2023-05-19T03:06:11;102751.78;;;15.52;50.01
37298;BME280;30517;51.932;4.278;2023-05-19T03:08:53;102756.22;;;15.49;50.30
37298;BME280;30517;51.932;4.278;2023-05-19T03:11:33;102746.47;;;15.48;50.17
37298;BME280;30517;51.932;4.278;2023-05-19T03:14:14;102743.78;;;15.45;50.49
37298;BME280;30517;51.932;4.278;2023-05-19T03:16:55;102735.75;;;15.41;50.23
37298;BME280;30517;51.932;4.278;2023-05-19T03:19:35;102741.97;;;15.40;50.29
37298;BME280;30517;51.932;4.278;2023-05-19T03:22:16;102754.34;;;15.38;50.51
37298;BME280;30517;51.932;4.278;2023-05-19T03:24:57;102735.72;;;15.35;50.32
37298;BME280;30517;51.932;4.278;2023-05-19T03:27:38;102737.47;;;15.33;50.41
37298;BME280;30517;51.932;4.278;2023-05-19T03:30:19;102727.69;;;15.30;50.59
37298;BME280;30517;51.932;4.278;2023-05-19T03:32:59;102726.78;;;15.28;50.32
37298;BME280;30517;51.932;4.278;2023-05-19T03:35:40;102725.91;;;15.27;50.58
37298;BME280;30517;51.932;4.278;2023-05-19T03:38:21;102733.84;;;15.24;50.25
37298;BME280;30517;51.932;4.278;2023-05-19T03:41:01;102727.63;;;15.22;50.33
37298;BME280;30517;51.932;4.278;2023-05-19T03:43:42;102726.72;;;15.19;50.46
37298;BME280;30517;51.932;4.278;2023-05-19T03:46:23;102732.91;;;15.16;50.65
37298;BME280;30517;51.932;4.278;2023-05-19T03:49:03;102739.06;;;15.14;50.44
37298;BME280;30517;51.932;4.278;2023-05-19T03:51:44;102735.50;;;15.12;50.56
37298;BME280;30517;51.932;4.278;2023-05-19T03:54:25;102732.84;;;15.10;50.57
37298;BME280;30517;51.932;4.278;2023-05-19T03:57:07;102730.19;;;15.10;50.36
37298;BME280;30517;51.932;4.278;2023-05-19T03:59:48;102728.38;;;15.06;50.58
37298;BME280;30517;51.932;4.278;2023-05-19T04:02:29;102731.00;;;15.03;50.48
37298;BME280;30517;51.932;4.278;2023-05-19T04:05:10;102727.44;;;15.01;50.71
37298;BME280;30517;51.932;4.278;2023-05-19T04:07:51;102725.66;;;14.97;50.52
37298;BME280;30517;51.932;4.278;2023-05-19T04:10:31;102730.06;;;14.96;50.34
37298;BME280;30517;51.932;4.278;2023-05-19T04:13:12;102735.38;;;14.93;50.72
37298;BME280;30517;51.932;4.278;2023-05-19T04:15:53;102745.06;;;14.91;50.40
37298;BME280;30517;51.932;4.278;2023-05-19T04:18:34;102734.41;;;14.90;50.63
37298;BME280;30517;51.932;4.278;2023-05-19T04:21:15;102740.59;;;14.87;50.59
37298;BME280;30517;51.932;4.278;2023-05-19T04:23:55;102744.09;;;14.85;50.37
37298;BME280;30517;51.932;4.278;2023-05-19T04:26:38;102739.69;;;14.83;50.72
37298;BME280;30517;51.932;4.278;2023-05-19T04:29:24;102739.66;;;14.80;50.69
37298;BME280;30517;51.932;4.278;2023-05-19T04:32:05;102744.94;;;14.77;50.53
37298;BME280;30517;51.932;4.278;2023-05-19T04:34:46;102744.03;;;14.77;50.71
37298;BME280;30517;51.932;4.278;2023-05-19T04:37:27;102747.53;;;14.73;50.68
37298;BME280;30517;51.932;4.278;2023-05-19T04:40:08;102759.91;;;14.71;50.67
37298;BME280;30517;51.932;4.278;2023-05-19T04:42:50;102750.16;;;14.70;50.57
37298;BME280;30517;51.932;4.278;2023-05-19T04:45:31;102754.56;;;14.68;50.91
37298;BME280;30517;51.932;4.278;2023-05-19T04:48:12;102758.09;;;14.67;50.74
37298;BME280;30517;51.932;4.278;2023-05-19T04:50:52;102751.84;;;14.63;51.04
37298;BME280;30517;51.932;4.278;2023-05-19T04:53:33;102765.13;;;14.63;50.55
37298;BME280;30517;51.932;4.278;2023-05-19T04:56:15;102765.13;;;14.62;50.73
37298;BME280;30517;51.932;4.278;2023-05-19T04:58:56;102760.66;;;14.59;50.77
37298;BME280;30517;51.932;4.278;2023-05-19T05:01:36;102762.41;;;14.57;50.59
37298;BME280;30517;51.932;4.278;2023-05-19T05:04:19;102761.53;;;14.56;50.65
37298;BME280;30517;51.932;4.278;2023-05-19T05:07:00;102769.44;;;14.53;50.98
37298;BME280;30517;51.932;4.278;2023-05-19T05:09:41;102760.59;;;14.54;50.83
37298;BME280;30517;51.932;4.278;2023-05-19T05:12:22;102760.59;;;14.53;50.82
37298;BME280;30517;51.932;4.278;2023-05-19T05:15:03;102766.72;;;14.50;50.87
37298;BME280;30517;51.932;4.278;2023-05-19T05:17:48;102769.34;;;14.49;50.72
37298;BME280;30517;51.932;4.278;2023-05-19T05:20:30;102770.25;;;14.48;50.68
37298;BME280;30517;51.932;4.278;2023-05-19T05:23:11;102770.25;;;14.48;50.81
37298;BME280;30517;51.932;4.278;2023-05-19T05:25:53;102764.91;;;14.46;50.77
37298;BME280;30517;51.932;4.278;2023-05-19T05:28:34;102766.63;;;14.44;51.06
37298;BME280;30517;51.932;4.278;2023-05-19T05:31:15;102770.13;;;14.42;50.89
37298;BME280;30517;51.932;4.278;2023-05-19T05:33:56;102768.41;;;14.42;50.70
37298;BME280;30517;51.932;4.278;2023-05-19T05:36:37;102771.03;;;14.41;50.75
37298;BME280;30517;51.932;4.278;2023-05-19T05:39:18;102770.13;;;14.40;50.67
37298;BME280;30517;51.932;4.278;2023-05-19T05:41:58;102765.69;;;14.37;50.84
37298;BME280;30517;51.932;4.278;2023-05-19T05:44:40;102769.19;;;14.35;50.55
37298;BME280;30517;51.932;4.278;2023-05-19T05:47:20;102778.91;;;14.34;51.21
37298;BME280;30517;51.932;4.278;2023-05-19T05:50:01;102763.84;;;14.32;51.35
37298;BME280;30517;51.932;4.278;2023-05-19T05:52:45;102761.16;;;14.29;51.08
37298;BME280;30517;51.932;4.278;2023-05-19T05:55:26;102762.03;;;14.29;51.26
37298;BME280;30517;51.932;4.278;2023-05-19T05:58:06;102756.69;;;14.26;51.19
37298;BME280;30517;51.932;4.278;2023-05-19T06:00:50;102754.88;;;14.25;51.40
37298;BME280;30517;51.932;4.278;2023-05-19T06:03:32;102764.63;;;14.25;51.62
37298;BME280;30517;51.932;4.278;2023-05-19T06:06:13;102763.69;;;14.21;51.54
37298;BME280;30517;51.932;4.278;2023-05-19T06:08:53;102753.94;;;14.19;51.60
37298;BME280;30517;51.932;4.278;2023-05-19T06:11:34;102765.41;;;14.16;51.49
37298;BME280;30517;51.932;4.278;2023-05-19T06:14:15;102762.75;;;14.16;51.57
37298;BME280;30517;51.932;4.278;2023-05-19T06:16:57;102768.00;;;14.14;52.05
37298;BME280;30517;51.932;4.278;2023-05-19T06:19:38;102766.22;;;14.10;51.86
37298;BME280;30517;51.932;4.278;2023-05-19T06:22:18;102775.94;;;14.11;52.06
37298;BME280;30517;51.932;4.278;2023-05-19T06:24:59;102768.81;;;14.09;52.14
37298;BME280;30517;51.932;4.278;2023-05-19T06:27:40;102764.41;;;14.08;52.51
37298;BME280;30517;51.932;4.278;2023-05-19T06:30:21;102761.72;;;14.06;52.48
37298;BME280;30517;51.932;4.278;2023-05-19T06:33:02;102764.38;;;14.05;52.33
37298;BME280;30517;51.932;4.278;2023-05-19T06:35:43;102768.78;;;14.04;52.42
37298;BME280;30517;51.932;4.278;2023-05-19T06:38:23;102767.88;;;14.04;52.54
37298;BME280;30517;51.932;4.278;2023-05-19T06:41:04;102764.31;;;14.03;52.33
37298;BME280;30517;51.932;4.278;2023-05-19T06:43:45;102769.69;;;14.06;52.63
37298;BME280;30517;51.932;4.278;2023-05-19T06:46:25;102765.25;;;14.05;52.60
37298;BME280;30517;51.932;4.278;2023-05-19T06:49:06;102766.13;;;14.04;52.68
37298;BME280;30517;51.932;4.278;2023-05-19T06:51:47;102772.31;;;14.06;52.71
37298;BME280;30517;51.932;4.278;2023-05-19T06:54:28;102771.47;;;14.07;52.75
37298;BME280;30517;51.932;4.278;2023-05-19T06:57:08;102771.47;;;14.07;52.57
37298;BME280;30517;51.932;4.278;2023-05-19T06:59:49;102765.25;;;14.05;53.12
37298;BME280;30517;51.932;4.278;2023-05-19T07:02:30;102769.72;;;14.09;52.36
37298;BME280;30517;51.932;4.278;2023-05-19T07:05:10;102769.72;;;14.08;52.56
37298;BME280;30517;51.932;4.278;2023-05-19T07:07:51;102762.63;;;14.08;52.58
37298;BME280;30517;51.932;4.278;2023-05-19T07:10:32;102767.97;;;14.11;52.73
37298;BME280;30517;51.932;4.278;2023-05-19T07:13:12;102760.06;;;14.13;52.84
37298;BME280;30517;51.932;4.278;2023-05-19T07:15:53;102756.50;;;14.14;52.79
37298;BME280;30517;51.932;4.278;2023-05-19T07:18:37;102755.66;;;14.16;53.36
37298;BME280;30517;51.932;4.278;2023-05-19T07:21:17;102753.03;;;14.18;53.09
37298;BME280;30517;51.932;4.278;2023-05-19T07:23:58;102757.50;;;14.21;52.71
37298;BME280;30517;51.932;4.278;2023-05-19T07:26:39;102752.19;;;14.21;53.07
37298;BME280;30517;51.932;4.278;2023-05-19T07:29:20;102754.88;;;14.24;53.06
37298;BME280;30517;51.932;4.278;2023-05-19T07:32:01;102748.69;;;14.25;52.97
37298;BME280;30517;51.932;4.278;2023-05-19T07:34:41;102753.16;;;14.27;53.45
37298;BME280;30517;51.932;4.278;2023-05-19T07:37:22;102747.88;;;14.30;52.91
37298;BME280;30517;51.932;4.278;2023-05-19T07:40:03;102755.88;;;14.33;52.91
37298;BME280;30517;51.932;4.278;2023-05-19T07:42:46;102752.38;;;14.36;52.82
37298;BME280;30517;51.932;4.278;2023-05-19T07:45:27;102753.28;;;14.38;52.95
37298;BME280;30517;51.932;4.278;2023-05-19T07:48:08;102759.53;;;14.40;53.01
37298;BME280;30517;51.932;4.278;2023-05-19T07:50:49;102771.94;;;14.43;53.00
37298;BME280;30517;51.932;4.278;2023-05-19T07:53:30;102756.97;;;14.48;52.87
37298;BME280;30517;51.932;4.278;2023-05-19T07:56:10;102755.19;;;14.48;52.85
37298;BME280;30517;51.932;4.278;2023-05-19T07:58:51;102747.25;;;14.51;52.75
37298;BME280;30517;51.932;4.278;2023-05-19T08:01:32;102744.66;;;14.54;52.90
37298;BME280;30517;51.932;4.278;2023-05-19T08:04:13;102754.47;;;14.58;52.93
37298;BME280;30517;51.932;4.278;2023-05-19T08:06:53;102748.28;;;14.59;52.85
37298;BME280;30517;51.932;4.278;2023-05-19T08:09:34;102751.84;;;14.62;52.96
37298;BME280;30517;51.932;4.278;2023-05-19T08:12:15;102747.44;;;14.65;52.88
37298;BME280;30517;51.932;4.278;2023-05-19T08:14:55;102749.25;;;14.68;52.91
37298;BME280;30517;51.932;4.278;2023-05-19T08:17:36;102751.94;;;14.71;53.02
37298;BME280;30517;51.932;4.278;2023-05-19T08:20:17;102737.78;;;14.73;53.12
37298;BME280;30517;51.932;4.278;2023-05-19T08:22:58;102739.63;;;14.77;53.20
37298;BME280;30517;51.932;4.278;2023-05-19T08:25:39;102741.44;;;14.80;52.72
37298;BME280;30517;51.932;4.278;2023-05-19T08:28:19;102732.59;;;14.82;52.80
37298;BME280;30517;51.932;4.278;2023-05-19T08:31:00;102735.28;;;14.87;52.70
37298;BME280;30517;51.932;4.278;2023-05-19T08:33:41;102729.09;;;14.90;52.68
37298;BME280;30517;51.932;4.278;2023-05-19T08:36:21;102720.28;;;14.92;52.84
37298;BME280;30517;51.932;4.278;2023-05-19T08:39:02;102726.50;;;14.96;52.76
37298;BME280;30517;51.932;4.278;2023-05-19T08:41:43;102721.25;;;14.99;52.64
37298;BME280;30517;51.932;4.278;2023-05-19T08:44:24;102718.56;;;15.00;52.37
37298;BME280;30517;51.932;4.278;2023-05-19T08:47:05;102709.75;;;15.03;52.46
37298;BME280;30517;51.932;4.278;2023-05-19T08:49:52;102705.34;;;15.07;52.37
37298;BME280;30517;51.932;4.278;2023-05-19T08:52:54;102713.38;;;15.10;52.44
37298;BME280;30517;51.932;4.278;2023-05-19T08:58:21;102698.31;;;15.15;52.43
37298;BME280;30517;51.932;4.278;2023-05-19T09:01:02;102699.25;;;15.18;52.58
37298;BME280;30517;51.932;4.278;2023-05-19T09:03:43;102703.72;;;15.21;52.32
37298;BME280;30517;51.932;4.278;2023-05-19T09:06:24;102701.06;;;15.24;52.34
37298;BME280;30517;51.932;4.278;2023-05-19T09:09:05;102697.53;;;15.26;52.18
37298;BME280;30517;51.932;4.278;2023-05-19T09:11:47;102699.34;;;15.31;52.60
37298;BME280;30517;51.932;4.278;2023-05-19T09:14:28;102698.47;;;15.33;52.26
37298;BME280;30517;51.932;4.278;2023-05-19T09:17:09;102697.59;;;15.36;52.29
37298;BME280;30517;51.932;4.278;2023-05-19T09:19:50;102702.09;;;15.40;52.43
37298;BME280;30517;51.932;4.278;2023-05-19T09:22:31;102694.13;;;15.43;52.24
37298;BME280;30517;51.932;4.278;2023-05-19T09:25:18;102695.91;;;15.45;52.53
37298;BME280;30517;51.932;4.278;2023-05-19T09:27:59;102700.34;;;15.49;52.17
37298;BME280;30517;51.932;4.278;2023-05-19T09:30:39;102697.72;;;15.53;52.16
37298;BME280;30517;51.932;4.278;2023-05-19T09:33:20;102696.88;;;15.57;52.57
37298;BME280;30517;51.932;4.278;2023-05-19T09:36:01;102702.22;;;15.60;52.54
37298;BME280;30517;51.932;4.278;2023-05-19T09:38:44;102695.13;;;15.62;52.33
37298;BME280;30517;51.932;4.278;2023-05-19T09:41:25;102697.81;;;15.65;52.08
37298;BME280;30517;51.932;4.278;2023-05-19T09:44:06;102693.44;;;15.70;52.40
37298;BME280;30517;51.932;4.278;2023-05-19T09:46:47;102691.69;;;15.72;52.40
37298;BME280;30517;51.932;4.278;2023-05-19T09:49:28;102700.56;;;15.76;52.18
37298;BME280;30517;51.932;4.278;2023-05-19T09:52:10;102699.72;;;15.80;52.12
37298;BME280;30517;51.932;4.278;2023-05-19T09:54:55;102690.84;;;15.84;52.34
37298;BME280;30517;51.932;4.278;2023-05-19T09:57:36;102686.44;;;15.87;52.39
37298;BME280;30517;51.932;4.278;2023-05-19T10:00:17;102680.25;;;15.91;52.07
37298;BME280;30517;51.932;4.278;2023-05-19T10:02:58;102678.50;;;15.95;52.01
37298;BME280;30517;51.932;4.278;2023-05-19T10:05:40;102677.63;;;15.98;51.96
37298;BME280;30517;51.932;4.278;2023-05-19T10:08:22;102674.97;;;16.02;51.92
37298;BME280;30517;51.932;4.278;2023-05-19T10:11:06;102677.66;;;16.05;52.17
37298;BME280;30517;51.932;4.278;2023-05-19T10:13:49;102675.88;;;16.09;52.18
37298;BME280;30517;51.932;4.278;2023-05-19T10:16:30;102680.34;;;16.13;51.96
37298;BME280;30517;51.932;4.278;2023-05-19T10:19:11;102681.25;;;16.18;51.79
37298;BME280;30517;51.932;4.278;2023-05-19T10:21:52;102685.72;;;16.21;51.67
37298;BME280;30517;51.932;4.278;2023-05-19T10:24:33;102687.47;;;16.25;52.18
37298;BME280;30517;51.932;4.278;2023-05-19T10:27:14;102678.63;;;16.30;52.07
37298;BME280;30517;51.932;4.278;2023-05-19T10:29:56;102677.75;;;16.34;51.56
37298;BME280;30517;51.932;4.278;2023-05-19T10:32:39;102677.75;;;16.37;51.53
37298;BME280;30517;51.932;4.278;2023-05-19T10:43:36;102666.25;;;16.54;51.57
37298;BME280;30517;51.932;4.278;2023-05-19T10:46:23;102657.41;;;16.58;51.54
37298;BME280;30517;51.932;4.278;2023-05-19T10:49:08;102668.03;;;16.63;51.55
37298;BME280;30517;51.932;4.278;2023-05-19T10:51:53;102660.06;;;16.66;51.37
37298;BME280;30517;51.932;4.278;2023-05-19T10:54:44;102654.75;;;16.70;51.90
37298;BME280;30517;51.932;4.278;2023-05-19T10:57:25;102645.88;;;16.74;51.64
37298;BME280;30517;51.932;4.278;2023-05-19T11:00:28;102647.69;;;16.80;51.44
37298;BME280;30517;51.932;4.278;2023-05-19T11:03:15;102645.91;;;16.84;51.36
37298;BME280;30517;51.932;4.278;2023-05-19T11:06:18;102649.47;;;16.89;51.45
37298;BME280;30517;51.932;4.278;2023-05-19T11:09:12;102652.13;;;16.93;51.25
37298;BME280;30517;51.932;4.278;2023-05-19T11:11:54;102646.81;;;16.96;51.28
37298;BME280;30517;51.932;4.278;2023-05-19T11:14:35;102641.47;;;17.02;51.57
37298;BME280;30517;51.932;4.278;2023-05-19T11:17:17;102653.91;;;17.08;51.07
37298;BME280;30517;51.932;4.278;2023-05-19T11:20:00;102643.22;;;17.13;51.23
37298;BME280;30517;51.932;4.278;2023-05-19T11:22:40;102642.34;;;17.18;51.37
37298;BME280;30517;51.932;4.278;2023-05-19T11:25:37;102653.88;;;17.22;51.02
37298;BME280;30517;51.932;4.278;2023-05-19T11:28:20;102645.88;;;17.27;51.15
37298;BME280;30517;51.932;4.278;2023-05-19T11:31:05;102647.63;;;17.31;51.00
37298;BME280;30517;51.932;4.278;2023-05-19T11:33:47;102644.97;;;17.35;51.11
37298;BME280;30517;51.932;4.278;2023-05-19T11:36:27;102644.06;;;17.41;51.19
37298;BME280;30517;51.932;4.278;2023-05-19T11:39:08;102637.81;;;17.46;50.95
37298;BME280;30517;51.932;4.278;2023-05-19T11:41:50;102633.41;;;17.50;51.03
37298;BME280;30517;51.932;4.278;2023-05-19T11:44:30;102636.03;;;17.55;51.00
37298;BME280;30517;51.932;4.278;2023-05-19T11:47:12;102633.38;;;17.61;50.82
37298;BME280;30517;51.932;4.278;2023-05-19T11:49:53;102627.09;;;17.65;51.17
37298;BME280;30517;51.932;4.278;2023-05-19T11:52:35;102627.06;;;17.71;50.96
37298;BME280;30517;51.932;4.278;2023-05-19T11:55:16;102531.22;;;17.19;49.92
37298;BME280;30517;51.932;4.278;2023-05-19T11:57:58;102628.84;;;17.78;50.43
37298;BME280;30517;51.932;4.278;2023-05-19T12:00:39;102628.84;;;17.81;50.51
37298;BME280;30517;51.932;4.278;2023-05-19T12:03:20;102620.81;;;17.89;50.42
37298;BME280;30517;51.932;4.278;2023-05-19T12:06:05;102611.00;;;17.94;50.26
37298;BME280;30517;51.932;4.278;2023-05-19T12:08:49;102620.78;;;18.01;50.17
37298;BME280;30517;51.932;4.278;2023-05-19T12:11:30;102609.16;;;18.08;50.16
37298;BME280;30517;51.932;4.278;2023-05-19T12:14:10;102611.84;;;18.10;44.86
37298;BME280;30517;51.932;4.278;2023-05-19T12:16:52;102611.75;;;18.22;47.56
37298;BME280;30517;51.932;4.278;2023-05-19T12:19:32;102605.47;;;18.28;48.73
37298;BME280;30517;51.932;4.278;2023-05-19T12:22:13;102602.78;;;18.34;49.02
37298;BME280;30517;51.932;4.278;2023-05-19T12:24:54;102603.63;;;18.42;49.08
37298;BME280;30517;51.932;4.278;2023-05-19T12:27:35;102610.69;;;18.48;49.35
37298;BME280;30517;51.932;4.278;2023-05-19T12:30:17;102603.50;;;18.54;49.30
37298;BME280;30517;51.932;4.278;2023-05-19T12:32:58;102610.59;;;18.60;49.35
37298;BME280;30517;51.932;4.278;2023-05-19T12:35:39;102513.00;;;18.13;49.47
37298;BME280;30517;51.932;4.278;2023-05-19T12:38:19;102606.03;;;18.73;49.53
37298;BME280;30517;51.932;4.278;2023-05-19T12:41:00;102593.56;;;18.78;49.44
37298;BME280;30517;51.932;4.278;2023-05-19T12:43:41;102594.38;;;18.86;49.45
37298;BME280;30517;51.932;4.278;2023-05-19T12:46:21;102592.53;;;18.93;49.38
37298;BME280;30517;51.932;4.278;2023-05-19T12:49:02;102517.16;;;18.52;49.42
37298;BME280;30517;51.932;4.278;2023-05-19T12:51:50;102592.41;;;19.05;49.50
37298;BME280;30517;51.932;4.278;2023-05-19T12:54:33;102587.88;;;19.12;49.44
37298;BME280;30517;51.932;4.278;2023-05-19T12:57:18;102584.25;;;19.20;49.58
37298;BME280;30517;51.932;4.278;2023-05-19T13:00:01;102585.94;;;19.28;49.38
37298;BME280;30517;51.932;4.278;2023-05-19T13:03:03;102585.88;;;19.34;49.31
37298;BME280;30517;51.932;4.278;2023-05-19T13:05:45;102581.34;;;19.42;49.13
37298;BME280;30517;51.932;4.278;2023-05-19T13:08:26;102577.63;;;19.52;46.00
37298;BME280;30517;51.932;4.278;2023-05-19T13:11:07;102569.47;;;19.64;48.38
37298;BME280;30517;51.932;4.278;2023-05-19T13:13:48;102568.47;;;19.73;48.86
37298;BME280;30517;51.932;4.278;2023-05-19T13:16:28;102571.94;;;19.83;49.07
37298;BME280;30517;51.932;4.278;2023-05-19T13:19:09;102567.31;;;19.93;49.20
37298;BME280;30517;51.932;4.278;2023-05-19T13:21:50;102493.66;;;19.61;48.93
37298;BME280;30517;51.932;4.278;2023-05-19T13:24:31;102560.66;;;20.20;48.84
37298;BME280;30517;51.932;4.278;2023-05-19T13:27:11;102560.50;;;20.30;48.84
37298;BME280;30517;51.932;4.278;2023-05-19T13:29:52;102558.56;;;20.42;48.43
37298;BME280;30517;51.932;4.278;2023-05-19T13:32:33;102562.00;;;20.50;48.43
37298;BME280;30517;51.932;4.278;2023-05-19T13:35:14;102561.00;;;20.57;48.39
37298;BME280;30517;51.932;4.278;2023-05-19T13:37:55;102564.44;;;20.65;48.22
37298;BME280;30517;51.932;4.278;2023-05-19T13:40:35;102559.88;;;20.72;48.12
37298;BME280;30517;51.932;4.278;2023-05-19T13:43:16;102566.00;;;20.78;48.16
37298;BME280;30517;51.932;4.278;2023-05-19T13:45:57;102556.91;;;20.87;47.95
37298;BME280;30517;51.932;4.278;2023-05-19T13:48:38;102551.47;;;20.92;48.05
37298;BME280;30517;51.932;4.278;2023-05-19T13:51:18;102547.75;;;20.99;47.93
37298;BME280;30517;51.932;4.278;2023-05-19T13:53:59;102553.88;;;21.06;47.94
37298;BME280;30517;51.932;4.278;2023-05-19T13:56:40;102552.88;;;21.13;47.96
37298;BME280;30517;51.932;4.278;2023-05-19T13:59:22;102546.47;;;21.20;48.06
37298;BME280;30517;51.932;4.278;2023-05-19T14:02:02;102550.78;;;21.27;47.88
37298;BME280;30517;51.932;4.278;2023-05-19T14:04:45;102538.16;;;21.34;47.83
37298;BME280;30517;51.932;4.278;2023-05-19T14:07:26;102539.84;;;21.39;47.68
37298;BME280;30517;51.932;4.278;2023-05-19T14:10:07;102539.72;;;21.44;47.78
37298;BME280;30517;51.932;4.278;2023-05-19T14:12:48;102542.25;;;21.52;47.87
37298;BME280;30517;51.932;4.278;2023-05-19T14:15:28;102532.28;;;21.58;47.71
37298;BME280;30517;51.932;4.278;2023-05-19T14:18:11;102529.44;;;21.66;47.54
37298;BME280;30517;51.932;4.278;2023-05-19T14:20:52;102532.00;;;21.71;47.49
37298;BME280;30517;51.932;4.278;2023-05-19T14:23:32;102528.28;;;21.78;47.59
37298;BME280;30517;51.932;4.278;2023-05-19T14:26:13;102532.59;;;21.85;47.66
37298;BME280;30517;51.932;4.278;2023-05-19T14:28:54;102532.44;;;21.91;47.45
37298;BME280;30517;51.932;4.278;2023-05-19T14:31:36;102529.59;;;21.99;47.45
37298;BME280;30517;51.932;4.278;2023-05-19T14:34:16;102532.09;;;22.06;47.49
37298;BME280;30517;51.932;4.278;2023-05-19T14:37:00;102535.53;;;22.13;47.46